Terminal Aerodrome Forecast
Issued by NWS

Home | Current Version | Previous Version | Text Only | Print | Product List | Glossary Off
Versions: 1 2 3 4 5 6 7 8 9 10 11 12

055
FTUS42 KMHX 271720
TAFOAJ
TAF
KOAJ 271720Z 2718/2818 24007KT P6SM SCT050
     FM272000 21007KT P6SM VCTS SCT040CB
     FM280000 23006KT P6SM SCT050
      AMD LTD TO CLD VIS AND WIND=

USA.gov is the U.S. government's official web portal to all federal, state and local government web resources and services.